This is the latest recevied weather packets stored in our database for station/object VA7NIC-10. If no packets are shown the sender has not sent any weather packets the latest 10 day(s).
| Time | Temp. | Humidity | Pressure | Rain* | Wind** | Luminosity | Snow |
|---|---|---|---|---|---|---|---|
| 1777484222 | 13.33° C | 74% | 1025.1 hPa | 0 mm | - | - | - |
| 1777483322 | 12.78° C | 74% | 1025.2 hPa | 0 mm | - | - | - |
| 1777482422 | 12.22° C | 76% | 1025.2 hPa | 0 mm | - | - | - |
| 1777481522 | 11.67° C | 79% | 1025.3 hPa | 0 mm | - | - | - |
| 1777480622 | 11.11° C | 83% | 1025.4 hPa | 0 mm | - | - | - |
| 1777471622 | 6.67° C | 88% | 1025.6 hPa | 0 mm | - | - | - |
| 1777469822 | 6.67° C | 89% | 1025.4 hPa | 0 mm | - | - | - |
| 1777468922 | 6.67° C | 89% | 1025.3 hPa | 0 mm | - | - | - |
| 1777468021 | 6.11° C | 89% | 1025.3 hPa | 0 mm | - | - | - |
| 1777466221 | 6.11° C | 89% | 1025.2 hPa | 0 mm | - | - | - |
| 1777465321 | 6.67° C | 89% | 1025.2 hPa | 0 mm | - | - | - |
| 1777462621 | 6.67° C | 89% | 1025.1 hPa | 0 mm | - | - | - |
| 1777461721 | 6.67° C | 89% | 1025 hPa | 0 mm | - | - | - |
| 1777460821 | 6.67° C | 89% | 1024.9 hPa | 0 mm | - | - | - |
| 1777459921 | 6.67° C | 89% | 1024.9 hPa | 0 mm | - | - | - |
| 1777459022 | 6.67° C | 89% | 1024.8 hPa | 0 mm | - | - | - |
| 1777458122 | 7.22° C | 89% | 1024.9 hPa | 0 mm | - | - | - |
| 1777457222 | 7.22° C | 88% | 1024.8 hPa | 0 mm | - | - | - |
| 1777455422 | 7.22° C | 88% | 1024.5 hPa | 0 mm | - | - | - |
| 1777454522 | 7.22° C | 88% | 1024.5 hPa | 0 mm | - | - | - |
| 1777453622 | 7.78° C | 88% | 1024.5 hPa | 0 mm | - | - | - |
| 1777452721 | 7.78° C | 88% | 1024.4 hPa | 0 mm | - | - | - |
| 1777451821 | 7.78° C | 88% | 1024.3 hPa | 0 mm | - | - | - |
| 1777450921 | 7.78° C | 87% | 1024.2 hPa | 0 mm | - | - | - |
| 1777450021 | 8.33° C | 87% | 1024.1 hPa | 0 mm | - | - | - |
* Rain latest hour (hover to see other rain measurements)
** Current wind speed in m/s (hover to see current wind gust speed)